sensor_id;sensor_type;location;lat;lon;timestamp;temperature;humidity
3690;DHT22;1861;50.240;8.596;2023-02-03T00:01:48;9.00;99.90
3690;DHT22;1861;50.240;8.596;2023-02-03T00:04:16;9.10;99.90
3690;DHT22;1861;50.240;8.596;2023-02-03T00:06:45;9.00;99.90
3690;DHT22;1861;50.240;8.596;2023-02-03T00:09:15;9.10;99.90
3690;DHT22;1861;50.240;8.596;2023-02-03T00:11:43;9.00;99.90
3690;DHT22;1861;50.240;8.596;2023-02-03T00:14:11;9.00;99.90
3690;DHT22;1861;50.240;8.596;2023-02-03T00:16:39;9.00;99.90
3690;DHT22;1861;50.240;8.596;2023-02-03T00:19:07;9.00;99.90
3690;DHT22;1861;50.240;8.596;2023-02-03T00:21:35;9.00;99.90
3690;DHT22;1861;50.240;8.596;2023-02-03T00:24:04;8.90;99.90
3690;DHT22;1861;50.240;8.596;2023-02-03T00:26:33;9.00;99.90
3690;DHT22;1861;50.240;8.596;2023-02-03T00:29:01;9.00;99.90
3690;DHT22;1861;50.240;8.596;2023-02-03T00:31:29;9.00;99.90
3690;DHT22;1861;50.240;8.596;2023-02-03T00:33:58;9.00;99.90
3690;DHT22;1861;50.240;8.596;2023-02-03T00:36:26;9.00;99.90
3690;DHT22;1861;50.240;8.596;2023-02-03T00:38:54;9.00;99.90
3690;DHT22;1861;50.240;8.596;2023-02-03T00:41:22;9.00;99.90
3690;DHT22;1861;50.240;8.596;2023-02-03T00:43:56;9.00;99.90
3690;DHT22;1861;50.240;8.596;2023-02-03T00:46:24;9.00;99.90
3690;DHT22;1861;50.240;8.596;2023-02-03T00:48:52;9.00;99.90
3690;DHT22;1861;50.240;8.596;2023-02-03T00:51:21;9.10;99.90
3690;DHT22;1861;50.240;8.596;2023-02-03T00:53:49;9.10;99.90
3690;DHT22;1861;50.240;8.596;2023-02-03T00:56:17;9.10;99.90
3690;DHT22;1861;50.240;8.596;2023-02-03T00:58:45;9.00;99.90
3690;DHT22;1861;50.240;8.596;2023-02-03T01:01:14;9.00;99.90
3690;DHT22;1861;50.240;8.596;2023-02-03T01:03:42;8.90;99.90
3690;DHT22;1861;50.240;8.596;2023-02-03T01:06:12;9.00;99.90
3690;DHT22;1861;50.240;8.596;2023-02-03T01:08:41;9.00;99.90
3690;DHT22;1861;50.240;8.596;2023-02-03T01:11:11;9.00;99.90
3690;DHT22;1861;50.240;8.596;2023-02-03T01:13:40;9.00;99.90
3690;DHT22;1861;50.240;8.596;2023-02-03T01:16:08;9.00;99.90
3690;DHT22;1861;50.240;8.596;2023-02-03T01:18:39;9.00;99.90
3690;DHT22;1861;50.240;8.596;2023-02-03T01:21:10;9.00;99.90
3690;DHT22;1861;50.240;8.596;2023-02-03T01:23:38;9.00;99.90
3690;DHT22;1861;50.240;8.596;2023-02-03T01:26:09;9.00;99.90
3690;DHT22;1861;50.240;8.596;2023-02-03T01:28:38;9.00;99.90
3690;DHT22;1861;50.240;8.596;2023-02-03T01:31:10;9.00;99.90
3690;DHT22;1861;50.240;8.596;2023-02-03T01:33:41;9.00;99.90
3690;DHT22;1861;50.240;8.596;2023-02-03T01:36:14;9.00;99.90
3690;DHT22;1861;50.240;8.596;2023-02-03T01:38:43;9.00;99.90
3690;DHT22;1861;50.240;8.596;2023-02-03T01:41:14;9.00;99.90
3690;DHT22;1861;50.240;8.596;2023-02-03T01:43:46;9.00;99.90
3690;DHT22;1861;50.240;8.596;2023-02-03T01:46:23;9.00;99.90
3690;DHT22;1861;50.240;8.596;2023-02-03T01:48:55;9.00;99.90
3690;DHT22;1861;50.240;8.596;2023-02-03T01:51:23;8.90;99.90
3690;DHT22;1861;50.240;8.596;2023-02-03T01:53:53;9.00;99.90
3690;DHT22;1861;50.240;8.596;2023-02-03T01:56:26;9.00;99.90
3690;DHT22;1861;50.240;8.596;2023-02-03T01:58:56;9.00;99.90
3690;DHT22;1861;50.240;8.596;2023-02-03T02:01:26;9.00;99.90
3690;DHT22;1861;50.240;8.596;2023-02-03T02:04:00;9.00;99.90
3690;DHT22;1861;50.240;8.596;2023-02-03T02:06:28;9.00;99.90
3690;DHT22;1861;50.240;8.596;2023-02-03T02:08:57;8.90;99.90
3690;DHT22;1861;50.240;8.596;2023-02-03T02:11:27;9.00;99.90
3690;DHT22;1861;50.240;8.596;2023-02-03T02:13:57;9.00;99.90
3690;DHT22;1861;50.240;8.596;2023-02-03T02:16:37;9.00;99.90
3690;DHT22;1861;50.240;8.596;2023-02-03T02:22:10;9.00;99.90
3690;DHT22;1861;50.240;8.596;2023-02-03T02:25:13;8.90;99.90
3690;DHT22;1861;50.240;8.596;2023-02-03T02:28:28;8.90;99.90
3690;DHT22;1861;50.240;8.596;2023-02-03T02:34:30;8.90;99.90
3690;DHT22;1861;50.240;8.596;2023-02-03T02:37:06;8.90;99.90
3690;DHT22;1861;50.240;8.596;2023-02-03T02:39:42;8.90;99.90
3690;DHT22;1861;50.240;8.596;2023-02-03T02:42:15;8.90;99.90
3690;DHT22;1861;50.240;8.596;2023-02-03T02:44:49;8.80;99.90
3690;DHT22;1861;50.240;8.596;2023-02-03T02:47:19;8.80;99.90
3690;DHT22;1861;50.240;8.596;2023-02-03T02:49:55;8.90;99.90
3690;DHT22;1861;50.240;8.596;2023-02-03T02:52:27;8.90;99.90
3690;DHT22;1861;50.240;8.596;2023-02-03T02:55:00;8.90;99.90
3690;DHT22;1861;50.240;8.596;2023-02-03T02:57:30;8.90;99.90
3690;DHT22;1861;50.240;8.596;2023-02-03T03:00:01;8.90;99.90
3690;DHT22;1861;50.240;8.596;2023-02-03T03:02:32;8.90;99.90
3690;DHT22;1861;50.240;8.596;2023-02-03T03:05:04;8.90;99.90
3690;DHT22;1861;50.240;8.596;2023-02-03T03:07:41;8.90;99.90
3690;DHT22;1861;50.240;8.596;2023-02-03T03:10:13;9.00;99.90
3690;DHT22;1861;50.240;8.596;2023-02-03T03:12:45;8.90;99.90
3690;DHT22;1861;50.240;8.596;2023-02-03T03:15:19;9.00;99.90
3690;DHT22;1861;50.240;8.596;2023-02-03T03:17:50;9.00;99.90
3690;DHT22;1861;50.240;8.596;2023-02-03T03:20:24;9.00;99.90
3690;DHT22;1861;50.240;8.596;2023-02-03T03:22:56;9.00;99.90
3690;DHT22;1861;50.240;8.596;2023-02-03T03:25:30;9.00;99.90
3690;DHT22;1861;50.240;8.596;2023-02-03T03:28:02;9.00;99.90
3690;DHT22;1861;50.240;8.596;2023-02-03T03:30:34;9.00;99.90
3690;DHT22;1861;50.240;8.596;2023-02-03T03:33:04;9.00;99.90
3690;DHT22;1861;50.240;8.596;2023-02-03T03:35:38;9.00;99.90
3690;DHT22;1861;50.240;8.596;2023-02-03T03:38:12;8.90;99.90
3690;DHT22;1861;50.240;8.596;2023-02-03T03:40:43;8.90;99.90
3690;DHT22;1861;50.240;8.596;2023-02-03T03:43:18;8.90;99.90
3690;DHT22;1861;50.240;8.596;2023-02-03T03:45:52;8.80;99.90
3690;DHT22;1861;50.240;8.596;2023-02-03T03:48:26;8.80;99.90
3690;DHT22;1861;50.240;8.596;2023-02-03T03:51:00;8.80;99.90
3690;DHT22;1861;50.240;8.596;2023-02-03T03:53:31;8.80;99.90
3690;DHT22;1861;50.240;8.596;2023-02-03T03:56:01;8.90;99.90
3690;DHT22;1861;50.240;8.596;2023-02-03T03:58:31;8.90;99.90
3690;DHT22;1861;50.240;8.596;2023-02-03T04:01:01;8.80;99.90
3690;DHT22;1861;50.240;8.596;2023-02-03T04:03:33;8.80;99.90
3690;DHT22;1861;50.240;8.596;2023-02-03T04:06:06;8.80;99.90
3690;DHT22;1861;50.240;8.596;2023-02-03T04:08:34;8.80;99.90
3690;DHT22;1861;50.240;8.596;2023-02-03T04:11:02;8.70;99.90
3690;DHT22;1861;50.240;8.596;2023-02-03T04:13:30;8.70;99.90
3690;DHT22;1861;50.240;8.596;2023-02-03T04:15:58;8.80;99.90
3690;DHT22;1861;50.240;8.596;2023-02-03T04:18:26;8.80;99.90
3690;DHT22;1861;50.240;8.596;2023-02-03T04:20:54;8.80;99.90
3690;DHT22;1861;50.240;8.596;2023-02-03T04:23:24;8.80;99.90
3690;DHT22;1861;50.240;8.596;2023-02-03T04:25:52;8.80;99.90
3690;DHT22;1861;50.240;8.596;2023-02-03T04:28:20;8.80;99.90
3690;DHT22;1861;50.240;8.596;2023-02-03T04:30:48;8.80;99.90
3690;DHT22;1861;50.240;8.596;2023-02-03T04:33:16;8.70;99.90
3690;DHT22;1861;50.240;8.596;2023-02-03T04:35:44;8.80;99.90
3690;DHT22;1861;50.240;8.596;2023-02-03T04:38:12;8.80;99.90
3690;DHT22;1861;50.240;8.596;2023-02-03T04:40:41;8.80;99.90
3690;DHT22;1861;50.240;8.596;2023-02-03T04:43:11;8.80;99.90
3690;DHT22;1861;50.240;8.596;2023-02-03T04:45:40;8.80;99.90
3690;DHT22;1861;50.240;8.596;2023-02-03T04:48:08;8.80;99.90
3690;DHT22;1861;50.240;8.596;2023-02-03T04:50:36;8.70;99.90
3690;DHT22;1861;50.240;8.596;2023-02-03T04:53:04;8.70;99.90
3690;DHT22;1861;50.240;8.596;2023-02-03T04:55:32;8.70;99.90
3690;DHT22;1861;50.240;8.596;2023-02-03T04:58:02;8.70;99.90
3690;DHT22;1861;50.240;8.596;2023-02-03T05:00:30;8.80;99.90
3690;DHT22;1861;50.240;8.596;2023-02-03T05:02:58;8.70;99.90
3690;DHT22;1861;50.240;8.596;2023-02-03T05:05:26;8.70;99.90
3690;DHT22;1861;50.240;8.596;2023-02-03T05:07:54;8.70;99.90
3690;DHT22;1861;50.240;8.596;2023-02-03T05:10:22;8.70;99.90
3690;DHT22;1861;50.240;8.596;2023-02-03T05:12:51;8.70;99.90
3690;DHT22;1861;50.240;8.596;2023-02-03T05:15:20;8.70;99.90
3690;DHT22;1861;50.240;8.596;2023-02-03T05:17:50;8.70;99.90
3690;DHT22;1861;50.240;8.596;2023-02-03T05:20:19;8.70;99.90
3690;DHT22;1861;50.240;8.596;2023-02-03T05:22:47;8.70;99.90
3690;DHT22;1861;50.240;8.596;2023-02-03T05:25:16;8.70;99.90
3690;DHT22;1861;50.240;8.596;2023-02-03T05:27:44;8.70;99.90
3690;DHT22;1861;50.240;8.596;2023-02-03T05:30:12;8.70;99.90
3690;DHT22;1861;50.240;8.596;2023-02-03T05:32:41;8.70;99.90
3690;DHT22;1861;50.240;8.596;2023-02-03T05:35:10;8.60;99.90
3690;DHT22;1861;50.240;8.596;2023-02-03T05:37:38;8.70;99.90
3690;DHT22;1861;50.240;8.596;2023-02-03T05:40:07;8.70;99.90
3690;DHT22;1861;50.240;8.596;2023-02-03T05:42:53;8.70;99.90
3690;DHT22;1861;50.240;8.596;2023-02-03T05:45:21;8.70;99.90
3690;DHT22;1861;50.240;8.596;2023-02-03T05:47:51;8.70;99.90
3690;DHT22;1861;50.240;8.596;2023-02-03T05:50:19;8.70;99.90
3690;DHT22;1861;50.240;8.596;2023-02-03T05:52:48;8.70;99.90
3690;DHT22;1861;50.240;8.596;2023-02-03T05:55:16;8.70;99.90
3690;DHT22;1861;50.240;8.596;2023-02-03T05:57:44;8.70;99.90
3690;DHT22;1861;50.240;8.596;2023-02-03T06:00:13;8.70;99.90
3690;DHT22;1861;50.240;8.596;2023-02-03T06:02:41;8.80;99.90
3690;DHT22;1861;50.240;8.596;2023-02-03T06:05:11;8.80;99.90
3690;DHT22;1861;50.240;8.596;2023-02-03T06:07:39;8.80;99.90
3690;DHT22;1861;50.240;8.596;2023-02-03T06:10:08;8.80;99.90
3690;DHT22;1861;50.240;8.596;2023-02-03T06:12:36;8.80;99.90
3690;DHT22;1861;50.240;8.596;2023-02-03T06:15:05;8.70;99.90
3690;DHT22;1861;50.240;8.596;2023-02-03T06:17:33;8.70;99.90
3690;DHT22;1861;50.240;8.596;2023-02-03T06:20:02;8.70;99.90
3690;DHT22;1861;50.240;8.596;2023-02-03T06:22:31;8.80;99.90
3690;DHT22;1861;50.240;8.596;2023-02-03T06:24:59;8.70;99.90
3690;DHT22;1861;50.240;8.596;2023-02-03T06:27:27;8.80;99.90
3690;DHT22;1861;50.240;8.596;2023-02-03T06:29:55;8.80;99.90
3690;DHT22;1861;50.240;8.596;2023-02-03T06:32:23;8.70;99.90
3690;DHT22;1861;50.240;8.596;2023-02-03T06:34:51;8.70;99.90
3690;DHT22;1861;50.240;8.596;2023-02-03T06:37:19;8.70;99.90
3690;DHT22;1861;50.240;8.596;2023-02-03T06:39:51;8.70;99.90
3690;DHT22;1861;50.240;8.596;2023-02-03T06:42:19;8.70;99.90
3690;DHT22;1861;50.240;8.596;2023-02-03T06:44:47;8.80;99.90
3690;DHT22;1861;50.240;8.596;2023-02-03T06:47:16;8.80;99.90
3690;DHT22;1861;50.240;8.596;2023-02-03T06:49:44;8.80;99.90
3690;DHT22;1861;50.240;8.596;2023-02-03T06:52:12;8.80;99.90
3690;DHT22;1861;50.240;8.596;2023-02-03T06:54:40;8.80;99.90
3690;DHT22;1861;50.240;8.596;2023-02-03T06:57:09;8.80;99.90
3690;DHT22;1861;50.240;8.596;2023-02-03T06:59:37;8.70;99.90
3690;DHT22;1861;50.240;8.596;2023-02-03T07:02:05;8.80;99.90
3690;DHT22;1861;50.240;8.596;2023-02-03T07:04:33;8.80;99.90
3690;DHT22;1861;50.240;8.596;2023-02-03T07:07:01;8.80;99.90
3690;DHT22;1861;50.240;8.596;2023-02-03T07:09:29;8.70;99.90
3690;DHT22;1861;50.240;8.596;2023-02-03T07:11:57;8.80;99.90
3690;DHT22;1861;50.240;8.596;2023-02-03T07:14:27;8.80;99.90
3690;DHT22;1861;50.240;8.596;2023-02-03T07:16:56;8.70;99.90
3690;DHT22;1861;50.240;8.596;2023-02-03T07:19:24;8.80;99.90
3690;DHT22;1861;50.240;8.596;2023-02-03T07:21:52;8.70;99.90
3690;DHT22;1861;50.240;8.596;2023-02-03T07:24:20;8.80;99.90
3690;DHT22;1861;50.240;8.596;2023-02-03T07:26:48;8.70;99.90
3690;DHT22;1861;50.240;8.596;2023-02-03T07:29:16;8.80;99.90
3690;DHT22;1861;50.240;8.596;2023-02-03T07:31:46;8.80;99.90
3690;DHT22;1861;50.240;8.596;2023-02-03T07:34:14;8.80;99.90
3690;DHT22;1861;50.240;8.596;2023-02-03T07:36:42;8.80;99.90
3690;DHT22;1861;50.240;8.596;2023-02-03T07:39:10;8.80;99.90
3690;DHT22;1861;50.240;8.596;2023-02-03T07:41:38;8.80;99.90
3690;DHT22;1861;50.240;8.596;2023-02-03T07:44:07;8.80;99.90
3690;DHT22;1861;50.240;8.596;2023-02-03T07:46:35;8.80;99.90
3690;DHT22;1861;50.240;8.596;2023-02-03T07:49:07;8.80;99.90
3690;DHT22;1861;50.240;8.596;2023-02-03T07:51:35;8.90;99.90
3690;DHT22;1861;50.240;8.596;2023-02-03T07:54:03;8.90;99.90
3690;DHT22;1861;50.240;8.596;2023-02-03T07:56:32;8.80;99.90
3690;DHT22;1861;50.240;8.596;2023-02-03T07:59:00;8.80;99.90
3690;DHT22;1861;50.240;8.596;2023-02-03T08:01:28;8.80;99.90
3690;DHT22;1861;50.240;8.596;2023-02-03T08:03:57;8.70;99.90
3690;DHT22;1861;50.240;8.596;2023-02-03T08:06:29;8.90;99.90
3690;DHT22;1861;50.240;8.596;2023-02-03T08:08:57;8.90;99.90
3690;DHT22;1861;50.240;8.596;2023-02-03T08:11:25;8.80;99.90
3690;DHT22;1861;50.240;8.596;2023-02-03T08:13:53;8.80;99.90
3690;DHT22;1861;50.240;8.596;2023-02-03T08:16:21;8.90;99.90
3690;DHT22;1861;50.240;8.596;2023-02-03T08:18:49;8.90;99.90
3690;DHT22;1861;50.240;8.596;2023-02-03T08:21:17;8.90;99.90
3690;DHT22;1861;50.240;8.596;2023-02-03T08:23:46;8.90;99.90
3690;DHT22;1861;50.240;8.596;2023-02-03T08:26:15;8.90;99.90
3690;DHT22;1861;50.240;8.596;2023-02-03T08:28:47;8.90;99.90
3690;DHT22;1861;50.240;8.596;2023-02-03T08:31:16;8.90;99.90
3690;DHT22;1861;50.240;8.596;2023-02-03T08:33:44;8.90;99.90
3690;DHT22;1861;50.240;8.596;2023-02-03T08:36:12;8.90;99.90
3690;DHT22;1861;50.240;8.596;2023-02-03T08:38:40;8.90;99.90
3690;DHT22;1861;50.240;8.596;2023-02-03T08:41:11;9.00;99.90
3690;DHT22;1861;50.240;8.596;2023-02-03T08:43:40;9.00;99.90
3690;DHT22;1861;50.240;8.596;2023-02-03T08:46:10;9.00;99.90
3690;DHT22;1861;50.240;8.596;2023-02-03T08:48:38;9.00;99.90
3690;DHT22;1861;50.240;8.596;2023-02-03T08:51:11;9.00;99.90
3690;DHT22;1861;50.240;8.596;2023-02-03T08:53:39;9.00;99.90
3690;DHT22;1861;50.240;8.596;2023-02-03T08:56:10;9.00;99.90
3690;DHT22;1861;50.240;8.596;2023-02-03T08:58:39;9.00;99.90
3690;DHT22;1861;50.240;8.596;2023-02-03T09:01:08;9.10;99.90
3690;DHT22;1861;50.240;8.596;2023-02-03T09:03:36;9.00;99.90
3690;DHT22;1861;50.240;8.596;2023-02-03T09:06:05;9.10;99.90
3690;DHT22;1861;50.240;8.596;2023-02-03T09:08:33;9.10;99.90
3690;DHT22;1861;50.240;8.596;2023-02-03T09:11:01;9.00;99.90
3690;DHT22;1861;50.240;8.596;2023-02-03T09:13:32;9.10;99.90
3690;DHT22;1861;50.240;8.596;2023-02-03T09:16:00;9.10;99.90
3690;DHT22;1861;50.240;8.596;2023-02-03T09:18:28;9.10;99.90
3690;DHT22;1861;50.240;8.596;2023-02-03T09:21:00;9.10;99.90
3690;DHT22;1861;50.240;8.596;2023-02-03T09:23:28;9.10;99.90
3690;DHT22;1861;50.240;8.596;2023-02-03T09:26:00;9.20;99.90
3690;DHT22;1861;50.240;8.596;2023-02-03T09:28:30;9.20;99.90
3690;DHT22;1861;50.240;8.596;2023-02-03T09:30:59;9.20;99.90
3690;DHT22;1861;50.240;8.596;2023-02-03T09:33:28;9.30;99.90
3690;DHT22;1861;50.240;8.596;2023-02-03T09:35:57;9.30;99.90
3690;DHT22;1861;50.240;8.596;2023-02-03T09:38:25;9.30;99.90
3690;DHT22;1861;50.240;8.596;2023-02-03T09:40:56;9.40;99.90
3690;DHT22;1861;50.240;8.596;2023-02-03T09:43:42;9.30;99.90
3690;DHT22;1861;50.240;8.596;2023-02-03T09:46:17;9.40;99.90
3690;DHT22;1861;50.240;8.596;2023-02-03T09:48:48;9.40;99.90
3690;DHT22;1861;50.240;8.596;2023-02-03T09:51:21;9.40;99.90
3690;DHT22;1861;50.240;8.596;2023-02-03T09:53:56;9.40;99.90
3690;DHT22;1861;50.240;8.596;2023-02-03T09:56:27;9.40;99.90
3690;DHT22;1861;50.240;8.596;2023-02-03T09:58:57;9.40;99.90
3690;DHT22;1861;50.240;8.596;2023-02-03T10:01:33;9.40;99.90
3690;DHT22;1861;50.240;8.596;2023-02-03T10:04:12;9.40;99.90
3690;DHT22;1861;50.240;8.596;2023-02-03T10:06:45;9.40;99.90
3690;DHT22;1861;50.240;8.596;2023-02-03T10:09:25;9.40;99.90
3690;DHT22;1861;50.240;8.596;2023-02-03T10:12:17;9.40;99.90
3690;DHT22;1861;50.240;8.596;2023-02-03T10:14:58;9.50;99.90
3690;DHT22;1861;50.240;8.596;2023-02-03T10:17:31;9.50;99.90
3690;DHT22;1861;50.240;8.596;2023-02-03T10:20:04;9.40;99.90
3690;DHT22;1861;50.240;8.596;2023-02-03T10:22:39;9.50;99.90
3690;DHT22;1861;50.240;8.596;2023-02-03T10:25:17;9.50;99.90
3690;DHT22;1861;50.240;8.596;2023-02-03T10:27:51;9.50;99.90
3690;DHT22;1861;50.240;8.596;2023-02-03T10:30:23;9.50;99.90
3690;DHT22;1861;50.240;8.596;2023-02-03T10:32:53;9.50;99.90
3690;DHT22;1861;50.240;8.596;2023-02-03T10:35:34;9.50;99.90
3690;DHT22;1861;50.240;8.596;2023-02-03T10:38:05;9.50;99.90
3690;DHT22;1861;50.240;8.596;2023-02-03T10:40:40;9.50;99.90
3690;DHT22;1861;50.240;8.596;2023-02-03T10:43:09;9.40;99.90
3690;DHT22;1861;50.240;8.596;2023-02-03T10:45:57;9.50;99.90
3690;DHT22;1861;50.240;8.596;2023-02-03T10:48:26;9.50;99.90
3690;DHT22;1861;50.240;8.596;2023-02-03T10:50:54;9.50;99.90
3690;DHT22;1861;50.240;8.596;2023-02-03T10:53:25;9.60;99.90
3690;DHT22;1861;50.240;8.596;2023-02-03T10:56:02;9.60;99.90
3690;DHT22;1861;50.240;8.596;2023-02-03T10:58:32;9.60;99.90
3690;DHT22;1861;50.240;8.596;2023-02-03T11:01:09;9.50;99.90
3690;DHT22;1861;50.240;8.596;2023-02-03T11:03:41;9.60;99.90
3690;DHT22;1861;50.240;8.596;2023-02-03T11:06:11;9.60;99.90
3690;DHT22;1861;50.240;8.596;2023-02-03T11:08:41;9.60;99.90
3690;DHT22;1861;50.240;8.596;2023-02-03T11:11:13;9.60;99.90
3690;DHT22;1861;50.240;8.596;2023-02-03T11:13:42;9.60;99.90
3690;DHT22;1861;50.240;8.596;2023-02-03T11:16:14;9.60;99.90
3690;DHT22;1861;50.240;8.596;2023-02-03T11:18:53;9.70;99.90
3690;DHT22;1861;50.240;8.596;2023-02-03T11:21:23;9.70;99.90
3690;DHT22;1861;50.240;8.596;2023-02-03T11:24:05;9.60;99.90
3690;DHT22;1861;50.240;8.596;2023-02-03T11:26:35;9.60;99.90
3690;DHT22;1861;50.240;8.596;2023-02-03T11:29:04;9.60;99.90
3690;DHT22;1861;50.240;8.596;2023-02-03T11:31:35;9.60;99.90
3690;DHT22;1861;50.240;8.596;2023-02-03T11:34:05;9.60;99.90
3690;DHT22;1861;50.240;8.596;2023-02-03T11:36:35;9.60;99.90
3690;DHT22;1861;50.240;8.596;2023-02-03T11:39:17;9.60;99.90
3690;DHT22;1861;50.240;8.596;2023-02-03T11:41:46;9.60;99.90
3690;DHT22;1861;50.240;8.596;2023-02-03T11:44:18;9.60;99.90
3690;DHT22;1861;50.240;8.596;2023-02-03T11:46:50;9.60;99.90
3690;DHT22;1861;50.240;8.596;2023-02-03T11:49:51;9.60;99.90
3690;DHT22;1861;50.240;8.596;2023-02-03T11:55:36;9.50;99.90
3690;DHT22;1861;50.240;8.596;2023-02-03T11:58:22;9.60;99.90
3690;DHT22;1861;50.240;8.596;2023-02-03T12:01:05;9.60;99.90
3690;DHT22;1861;50.240;8.596;2023-02-03T12:04:13;9.60;99.90
3690;DHT22;1861;50.240;8.596;2023-02-03T12:06:55;9.60;99.90
3690;DHT22;1861;50.240;8.596;2023-02-03T12:09:36;9.60;99.90
3690;DHT22;1861;50.240;8.596;2023-02-03T12:12:21;9.70;99.90
3690;DHT22;1861;50.240;8.596;2023-02-03T12:14:58;9.60;99.90
3690;DHT22;1861;50.240;8.596;2023-02-03T12:17:46;9.60;99.90
3690;DHT22;1861;50.240;8.596;2023-02-03T12:20:27;9.70;99.90
3690;DHT22;1861;50.240;8.596;2023-02-03T12:23:04;9.60;99.90
3690;DHT22;1861;50.240;8.596;2023-02-03T12:25:51;9.60;99.90
3690;DHT22;1861;50.240;8.596;2023-02-03T12:28:34;9.60;99.90
3690;DHT22;1861;50.240;8.596;2023-02-03T12:31:12;9.60;99.90
3690;DHT22;1861;50.240;8.596;2023-02-03T12:33:45;9.60;99.90
3690;DHT22;1861;50.240;8.596;2023-02-03T12:36:20;9.60;99.90
3690;DHT22;1861;50.240;8.596;2023-02-03T12:38:52;9.60;99.90
3690;DHT22;1861;50.240;8.596;2023-02-03T12:41:24;9.50;99.90
3690;DHT22;1861;50.240;8.596;2023-02-03T12:43:57;9.60;99.90
3690;DHT22;1861;50.240;8.596;2023-02-03T12:46:29;9.60;99.90
3690;DHT22;1861;50.240;8.596;2023-02-03T12:49:01;9.60;99.90
3690;DHT22;1861;50.240;8.596;2023-02-03T12:51:35;9.60;99.90
3690;DHT22;1861;50.240;8.596;2023-02-03T12:54:24;9.50;99.90
3690;DHT22;1861;50.240;8.596;2023-02-03T12:57:02;9.60;99.90
3690;DHT22;1861;50.240;8.596;2023-02-03T12:59:34;9.50;99.90
3690;DHT22;1861;50.240;8.596;2023-02-03T13:02:10;9.60;99.90
3690;DHT22;1861;50.240;8.596;2023-02-03T13:04:48;9.50;99.90
3690;DHT22;1861;50.240;8.596;2023-02-03T13:07:23;9.50;99.90
3690;DHT22;1861;50.240;8.596;2023-02-03T13:09:57;9.50;99.90
3690;DHT22;1861;50.240;8.596;2023-02-03T13:12:29;9.40;99.90
3690;DHT22;1861;50.240;8.596;2023-02-03T13:15:04;9.40;99.90
3690;DHT22;1861;50.240;8.596;2023-02-03T13:17:40;9.40;99.90
3690;DHT22;1861;50.240;8.596;2023-02-03T13:20:16;9.50;99.90
3690;DHT22;1861;50.240;8.596;2023-02-03T13:22:47;9.40;99.90
3690;DHT22;1861;50.240;8.596;2023-02-03T13:25:20;9.40;99.90
3690;DHT22;1861;50.240;8.596;2023-02-03T13:28:00;9.50;99.90
3690;DHT22;1861;50.240;8.596;2023-02-03T13:30:40;9.40;99.90
3690;DHT22;1861;50.240;8.596;2023-02-03T13:33:37;9.40;99.90
3690;DHT22;1861;50.240;8.596;2023-02-03T13:36:25;9.40;99.90
3690;DHT22;1861;50.240;8.596;2023-02-03T13:39:23;9.50;99.90
3690;DHT22;1861;50.240;8.596;2023-02-03T13:41:56;9.50;99.90
3690;DHT22;1861;50.240;8.596;2023-02-03T13:44:37;9.40;99.90
3690;DHT22;1861;50.240;8.596;2023-02-03T13:47:14;9.40;99.90
3690;DHT22;1861;50.240;8.596;2023-02-03T13:49:47;9.50;99.90
3690;DHT22;1861;50.240;8.596;2023-02-03T13:52:30;9.50;99.90
3690;DHT22;1861;50.240;8.596;2023-02-03T13:55:01;9.40;99.90
3690;DHT22;1861;50.240;8.596;2023-02-03T13:57:33;9.50;99.90
3690;DHT22;1861;50.240;8.596;2023-02-03T14:00:05;9.40;99.90
3690;DHT22;1861;50.240;8.596;2023-02-03T14:02:50;9.40;99.90
3690;DHT22;1861;50.240;8.596;2023-02-03T14:05:43;9.40;99.90
3690;DHT22;1861;50.240;8.596;2023-02-03T14:11:51;9.40;99.90
3690;DHT22;1861;50.240;8.596;2023-02-03T14:14:58;9.40;99.90
3690;DHT22;1861;50.240;8.596;2023-02-03T14:17:53;9.50;99.90
3690;DHT22;1861;50.240;8.596;2023-02-03T14:21:08;9.50;99.90
3690;DHT22;1861;50.240;8.596;2023-02-03T14:23:59;9.50;99.90
3690;DHT22;1861;50.240;8.596;2023-02-03T14:26:34;9.50;99.90
3690;DHT22;1861;50.240;8.596;2023-02-03T14:29:07;9.50;99.90
3690;DHT22;1861;50.240;8.596;2023-02-03T14:31:54;9.50;99.90
3690;DHT22;1861;50.240;8.596;2023-02-03T14:34:32;9.60;99.90
3690;DHT22;1861;50.240;8.596;2023-02-03T14:37:16;9.50;99.90
3690;DHT22;1861;50.240;8.596;2023-02-03T14:40:05;9.60;99.90
3690;DHT22;1861;50.240;8.596;2023-02-03T14:42:59;9.60;99.90
3690;DHT22;1861;50.240;8.596;2023-02-03T14:46:00;9.60;99.90
3690;DHT22;1861;50.240;8.596;2023-02-03T14:48:46;9.70;99.90
3690;DHT22;1861;50.240;8.596;2023-02-03T14:51:28;9.70;99.90
3690;DHT22;1861;50.240;8.596;2023-02-03T14:54:15;9.80;99.90
3690;DHT22;1861;50.240;8.596;2023-02-03T14:56:47;9.70;99.90
3690;DHT22;1861;50.240;8.596;2023-02-03T14:59:37;9.80;99.90
3690;DHT22;1861;50.240;8.596;2023-02-03T15:02:19;9.70;99.90
3690;DHT22;1861;50.240;8.596;2023-02-03T15:04:48;9.80;99.90
3690;DHT22;1861;50.240;8.596;2023-02-03T15:07:37;9.80;99.90
3690;DHT22;1861;50.240;8.596;2023-02-03T15:10:15;9.80;99.90
3690;DHT22;1861;50.240;8.596;2023-02-03T15:12:45;9.80;99.90
3690;DHT22;1861;50.240;8.596;2023-02-03T15:15:19;9.80;99.90
3690;DHT22;1861;50.240;8.596;2023-02-03T15:17:50;9.80;99.90
3690;DHT22;1861;50.240;8.596;2023-02-03T15:20:30;9.80;99.90
3690;DHT22;1861;50.240;8.596;2023-02-03T15:22:58;9.80;99.90
3690;DHT22;1861;50.240;8.596;2023-02-03T15:25:28;9.80;99.90
3690;DHT22;1861;50.240;8.596;2023-02-03T15:28:11;9.80;99.90
3690;DHT22;1861;50.240;8.596;2023-02-03T15:30:43;9.80;99.90
3690;DHT22;1861;50.240;8.596;2023-02-03T15:33:15;9.70;99.90
3690;DHT22;1861;50.240;8.596;2023-02-03T15:35:48;9.80;99.90
3690;DHT22;1861;50.240;8.596;2023-02-03T15:38:20;9.80;99.90
3690;DHT22;1861;50.240;8.596;2023-02-03T15:40:53;9.70;99.90
3690;DHT22;1861;50.240;8.596;2023-02-03T15:43:28;9.70;99.90
3690;DHT22;1861;50.240;8.596;2023-02-03T15:46:03;9.70;99.90
3690;DHT22;1861;50.240;8.596;2023-02-03T15:48:38;9.70;99.90
3690;DHT22;1861;50.240;8.596;2023-02-03T15:51:10;9.70;99.90
3690;DHT22;1861;50.240;8.596;2023-02-03T15:53:46;9.70;99.90
3690;DHT22;1861;50.240;8.596;2023-02-03T15:56:20;9.60;99.90
3690;DHT22;1861;50.240;8.596;2023-02-03T15:58:52;9.70;99.90
3690;DHT22;1861;50.240;8.596;2023-02-03T16:01:22;9.70;99.90
3690;DHT22;1861;50.240;8.596;2023-02-03T16:03:54;9.80;99.90
3690;DHT22;1861;50.240;8.596;2023-02-03T16:06:26;9.80;99.90
3690;DHT22;1861;50.240;8.596;2023-02-03T16:08:56;9.80;99.90
3690;DHT22;1861;50.240;8.596;2023-02-03T16:11:31;9.80;99.90
3690;DHT22;1861;50.240;8.596;2023-02-03T16:14:01;9.70;99.90
3690;DHT22;1861;50.240;8.596;2023-02-03T16:16:34;9.70;99.90
3690;DHT22;1861;50.240;8.596;2023-02-03T16:19:09;9.70;99.90
3690;DHT22;1861;50.240;8.596;2023-02-03T16:21:51;9.80;99.90
3690;DHT22;1861;50.240;8.596;2023-02-03T16:24:35;9.80;99.90
3690;DHT22;1861;50.240;8.596;2023-02-03T16:27:34;9.70;99.90
3690;DHT22;1861;50.240;8.596;2023-02-03T16:30:22;9.80;99.90
3690;DHT22;1861;50.240;8.596;2023-02-03T16:33:17;9.70;99.90
3690;DHT22;1861;50.240;8.596;2023-02-03T16:36:11;9.70;99.90
3690;DHT22;1861;50.240;8.596;2023-02-03T16:39:00;9.70;99.90
3690;DHT22;1861;50.240;8.596;2023-02-03T16:41:46;9.70;99.90
3690;DHT22;1861;50.240;8.596;2023-02-03T16:44:32;9.70;99.90
3690;DHT22;1861;50.240;8.596;2023-02-03T16:47:24;9.70;99.90
3690;DHT22;1861;50.240;8.596;2023-02-03T16:50:14;9.70;99.90
3690;DHT22;1861;50.240;8.596;2023-02-03T16:53:12;9.70;99.90
3690;DHT22;1861;50.240;8.596;2023-02-03T16:55:40;9.70;99.90
3690;DHT22;1861;50.240;8.596;2023-02-03T16:58:08;9.70;99.90
3690;DHT22;1861;50.240;8.596;2023-02-03T17:00:38;9.80;99.90
3690;DHT22;1861;50.240;8.596;2023-02-03T17:03:08;9.80;99.90
3690;DHT22;1861;50.240;8.596;2023-02-03T17:05:37;9.80;99.90
3690;DHT22;1861;50.240;8.596;2023-02-03T17:08:07;9.70;99.90
3690;DHT22;1861;50.240;8.596;2023-02-03T17:10:36;9.70;99.90